Terminal Aerodrome Forecast
Issued by NWS

Home | Current Version | Previous Version | Text Only | Print | Product List | Glossary On
Versions: 1 2 3 4 5 6 7 8 9 10 11 12 13 14 15 16 17 18 19 20
000
FTUS45 KBOI 161138
TAFMYL
TAF
KMYL 161138Z 1612/1712 00000KT 6SM BR BKN001
     FM161600 VRB03KT 5SM BR BKN003
     FM161800 VRB03KT P6SM FEW003
     FM170600 00000KT 1SM BR BKN004=

USA.gov is the U.S. government's official web portal to all federal, state and local government web resources and services.